Hollins College, Virginia
Current Conditions -  °F | °C
As of 9:54 PM on Thursday 27 Nov 2014 (Local Time) from KROA Reporting Station
Broken Clouds Broken Clouds  
Wind Chill: 22°   Ceiling: 3800
Heat Index: 33°   Visibility: 10mi
Dew Point: 19°   Wind: 17mph
Humidity: 56%   Direction: 300°WNW
Pressure: 30.26"   Gusts: 28mph
Location:  37.3533°N, 79.9353°W
Report Text: KROA 280254Z 30015G24KT 10SM BKN038 01/M07 A3026 RMK AO2 SLP253 T00061072 51014
Loading
Personal Weather Stations






























Interactive Weather Map New forecast layout! Learn more

10-Day Weather Forecast

Advertisements
Track Severe Weather on mobile